createdAt,value
2022-12-22T00:01:57.161Z,30.23
2022-12-22T00:04:43.134Z,33.80
2022-12-22T00:07:30.557Z,29.93
2022-12-22T00:10:16.378Z,33.50
2022-12-22T00:13:02.441Z,27.67
2022-12-22T00:15:52.617Z,43.17
2022-12-22T00:18:39.185Z,33.93
2022-12-22T00:21:25.030Z,32.00
2022-12-22T00:24:12.129Z,32.27
2022-12-22T00:26:58.065Z,33.13
2022-12-22T00:29:45.913Z,27.60
2022-12-22T00:32:32.738Z,33.40
2022-12-22T00:35:18.820Z,29.93
2022-12-22T00:38:04.906Z,35.47
2022-12-22T00:40:52.413Z,27.27
2022-12-22T00:43:38.272Z,28.77
2022-12-22T00:46:24.069Z,24.07
2022-12-22T00:49:10.003Z,29.00
2022-12-22T00:51:56.034Z,32.70
2022-12-22T00:54:42.547Z,29.30
2022-12-22T00:57:37.215Z,29.20
2022-12-22T01:00:25.020Z,31.63
2022-12-22T01:03:11.092Z,28.97
2022-12-22T01:05:57.286Z,33.83
2022-12-22T01:08:43.240Z,33.47
2022-12-22T01:11:29.137Z,39.90
2022-12-22T01:14:16.239Z,31.20
2022-12-22T01:17:02.109Z,29.53
2022-12-22T01:19:48.297Z,35.47
2022-12-22T01:22:39.348Z,34.27
2022-12-22T01:25:31.773Z,36.73
2022-12-22T01:28:17.512Z,38.20
2022-12-22T01:31:05.057Z,33.97
2022-12-22T01:33:51.023Z,40.40
2022-12-22T01:36:36.963Z,36.20
2022-12-22T01:39:22.697Z,37.10
2022-12-22T01:42:08.723Z,41.80
2022-12-22T01:44:54.510Z,41.43
2022-12-22T01:47:59.657Z,46.60
2022-12-22T01:50:50.149Z,46.43
2022-12-22T01:53:41.435Z,47.60
2022-12-22T01:56:27.894Z,49.17
2022-12-22T01:59:18.080Z,48.10
2022-12-22T02:02:04.474Z,47.80
2022-12-22T02:05:06.396Z,45.90
2022-12-22T02:08:15.246Z,45.47
2022-12-22T02:11:31.981Z,53.20
2022-12-22T02:14:30.765Z,41.90
2022-12-22T02:17:29.989Z,37.23
2022-12-22T02:20:44.323Z,43.97
2022-12-22T02:23:37.810Z,37.60
2022-12-22T02:26:42.897Z,39.67
2022-12-22T02:29:31.127Z,42.60
2022-12-22T02:32:17.492Z,46.70
2022-12-22T02:35:03.467Z,62.57
2022-12-22T02:38:03.674Z,39.67
2022-12-22T02:41:00.797Z,71.13
2022-12-22T02:44:10.387Z,37.13
2022-12-22T02:47:03.528Z,38.83
2022-12-22T02:49:57.804Z,57.80
2022-12-22T02:52:50.344Z,50.57
2022-12-22T02:55:36.381Z,43.90
2022-12-22T02:58:22.519Z,62.43
2022-12-22T03:01:10.175Z,54.33
2022-12-22T03:03:56.194Z,59.50
2022-12-22T03:06:42.254Z,33.20
2022-12-22T03:09:28.120Z,29.00
2022-12-22T03:12:13.727Z,31.87
2022-12-22T03:14:59.648Z,33.63
2022-12-22T03:17:46.641Z,33.53
2022-12-22T03:20:32.283Z,43.73
2022-12-22T03:23:23.827Z,38.00
2022-12-22T03:25:53.202Z,36.30
2022-12-22T03:28:23.250Z,32.90
2022-12-22T03:30:57.923Z,42.97
2022-12-22T03:33:28.763Z,29.30
2022-12-22T03:35:57.135Z,66.80
2022-12-22T03:38:26.104Z,36.70
2022-12-22T03:40:54.771Z,33.63
2022-12-22T03:43:40.661Z,29.27
2022-12-22T03:46:30.573Z,33.70
2022-12-22T03:49:12.747Z,56.13
2022-12-22T03:51:44.616Z,36.43
2022-12-22T03:54:15.293Z,36.37
2022-12-22T03:56:44.247Z,57.03
2022-12-22T03:59:12.715Z,41.77
2022-12-22T04:01:44.082Z,37.00
2022-12-22T04:04:15.840Z,45.70
2022-12-22T04:06:44.619Z,53.53
2022-12-22T04:09:13.736Z,44.50
2022-12-22T04:12:08.207Z,54.43
2022-12-22T04:14:36.970Z,42.50
2022-12-22T04:17:06.146Z,60.50
2022-12-22T04:19:35.866Z,48.33
2022-12-22T04:22:04.278Z,56.17
2022-12-22T04:24:32.636Z,49.07
2022-12-22T04:27:01.008Z,54.57
2022-12-22T04:29:29.322Z,55.20
2022-12-22T04:31:57.640Z,89.83
2022-12-22T04:34:25.947Z,76.13
2022-12-22T04:37:00.492Z,72.57
2022-12-22T04:39:32.822Z,58.03
2022-12-22T04:42:01.057Z,42.53
2022-12-22T04:44:29.486Z,48.07
2022-12-22T04:46:57.746Z,43.07
2022-12-22T04:49:26.042Z,45.03
2022-12-22T04:51:55.733Z,50.30
2022-12-22T04:54:24.014Z,49.93
2022-12-22T04:56:52.654Z,45.57
2022-12-22T04:59:21.027Z,43.57
2022-12-22T05:01:49.477Z,37.10
2022-12-22T05:04:23.477Z,40.17
2022-12-22T05:06:52.319Z,48.00
2022-12-22T05:09:22.085Z,37.37
2022-12-22T05:11:50.378Z,44.80
2022-12-22T05:14:18.755Z,51.23
2022-12-22T05:16:47.187Z,48.63
2022-12-22T05:19:15.580Z,49.93
2022-12-22T05:21:43.884Z,49.57
2022-12-22T05:24:12.124Z,49.30
2022-12-22T05:26:41.821Z,48.13
2022-12-22T05:29:10.138Z,55.07
2022-12-22T05:31:41.844Z,58.43
2022-12-22T05:34:15.185Z,47.63
2022-12-22T05:36:43.459Z,50.53
2022-12-22T05:39:11.700Z,65.10
2022-12-22T05:41:41.334Z,60.67
2022-12-22T05:44:09.722Z,67.53
2022-12-22T05:46:38.231Z,59.70
2022-12-22T05:49:06.574Z,66.60
2022-12-22T05:51:34.848Z,65.73
2022-12-22T05:54:03.141Z,61.03
2022-12-22T05:56:31.404Z,69.70
2022-12-22T05:59:01.178Z,71.60
2022-12-22T06:01:29.631Z,79.03
2022-12-22T06:04:00.576Z,66.23
2022-12-22T06:06:29.501Z,63.17
2022-12-22T06:08:57.834Z,61.60
2022-12-22T06:11:26.155Z,69.27
2022-12-22T06:13:54.439Z,65.03
2022-12-22T06:16:25.047Z,86.73
2022-12-22T06:18:53.414Z,77.13
2022-12-22T06:21:21.743Z,62.93
2022-12-22T06:23:50.021Z,64.93
2022-12-22T06:26:18.299Z,71.67
2022-12-22T06:28:46.628Z,66.13
2022-12-22T06:31:15.019Z,68.93
2022-12-22T06:33:45.475Z,61.93
2022-12-22T06:36:13.875Z,68.47
2022-12-22T06:38:42.096Z,70.20
2022-12-22T06:41:10.604Z,71.37
2022-12-22T06:43:37.994Z,59.03
2022-12-22T06:46:06.625Z,68.27
2022-12-22T06:48:34.927Z,78.13
2022-12-22T06:51:04.763Z,77.43
2022-12-22T06:53:33.107Z,62.90
2022-12-22T06:56:01.403Z,76.17
2022-12-22T06:58:29.747Z,64.67
2022-12-22T07:00:58.237Z,65.40
2022-12-22T07:03:26.719Z,69.83
2022-12-22T07:05:55.305Z,74.27
2022-12-22T07:08:25.024Z,82.77
2022-12-22T07:10:59.220Z,64.50
2022-12-22T07:13:30.061Z,67.90
2022-12-22T07:16:01.047Z,61.23
2022-12-22T07:18:32.516Z,66.97
2022-12-22T07:21:02.913Z,60.20
2022-12-22T07:23:33.026Z,59.17
2022-12-22T07:26:02.245Z,56.00
2022-12-22T07:28:33.235Z,58.00
2022-12-22T07:31:01.880Z,50.63
2022-12-22T07:33:30.412Z,49.97
2022-12-22T07:36:09.018Z,46.50
2022-12-22T07:38:42.361Z,43.30
2022-12-22T07:41:26.220Z,49.50
2022-12-22T07:43:55.350Z,44.83
2022-12-22T07:46:25.504Z,42.43
2022-12-22T07:49:11.232Z,43.97
2022-12-22T07:51:42.285Z,50.83
2022-12-22T07:54:15.260Z,53.53
2022-12-22T07:56:44.831Z,57.13
2022-12-22T07:59:13.794Z,66.10
2022-12-22T08:01:42.504Z,51.50
2022-12-22T08:04:11.543Z,51.50
2022-12-22T08:06:40.446Z,63.67
2022-12-22T08:09:14.319Z,85.20
2022-12-22T08:11:42.678Z,55.70
2022-12-22T08:14:11.122Z,67.83
2022-12-22T08:16:39.402Z,57.63
2022-12-22T08:19:07.793Z,60.17
2022-12-22T08:21:36.278Z,53.20
2022-12-22T08:24:04.835Z,66.63
2022-12-22T08:26:39.353Z,66.60
2022-12-22T08:29:13.026Z,64.90
2022-12-22T08:31:42.623Z,48.50
2022-12-22T08:34:15.101Z,56.63
2022-12-22T08:36:47.947Z,44.27
2022-12-22T08:39:17.057Z,45.73
2022-12-22T08:41:52.896Z,47.93
2022-12-22T08:44:24.180Z,44.47
2022-12-22T08:46:53.879Z,52.37
2022-12-22T08:49:22.711Z,37.70
2022-12-22T08:51:51.808Z,39.77
2022-12-22T08:54:20.891Z,34.33
2022-12-22T08:56:51.368Z,32.90
2022-12-22T08:59:19.859Z,39.73
2022-12-22T09:01:50.873Z,39.80
2022-12-22T09:04:22.341Z,34.20
2022-12-22T09:06:53.514Z,33.77
2022-12-22T09:09:22.107Z,41.17
2022-12-22T09:11:51.937Z,34.70
2022-12-22T09:14:20.434Z,35.77
2022-12-22T09:16:48.883Z,33.97
2022-12-22T09:19:17.377Z,43.57
2022-12-22T09:21:46.223Z,36.43
2022-12-22T09:24:15.002Z,40.93
2022-12-22T09:26:43.800Z,42.20
2022-12-22T09:29:15.362Z,38.53
2022-12-22T09:31:44.141Z,37.60
2022-12-22T09:34:17.488Z,41.53
2022-12-22T09:36:47.749Z,36.73
2022-12-22T09:39:17.059Z,40.50
2022-12-22T09:41:49.591Z,42.13
2022-12-22T09:44:26.387Z,35.80
2022-12-22T09:46:57.482Z,42.70
2022-12-22T09:49:26.592Z,41.80
2022-12-22T09:52:01.109Z,35.27
2022-12-22T09:54:31.089Z,31.60
2022-12-22T09:56:59.898Z,38.87
2022-12-22T09:59:31.273Z,37.83
2022-12-22T10:02:16.791Z,35.10
2022-12-22T10:05:11.933Z,40.80
2022-12-22T10:07:42.794Z,48.90
2022-12-22T10:10:25.404Z,40.90
2022-12-22T10:12:55.548Z,44.33
2022-12-22T10:15:26.203Z,40.37
2022-12-22T10:18:08.977Z,36.03
2022-12-22T10:20:39.873Z,41.83
2022-12-22T10:23:18.930Z,44.00
2022-12-22T10:29:01.966Z,35.70
2022-12-22T10:31:34.082Z,29.47
2022-12-22T10:34:14.149Z,34.63
2022-12-22T10:36:47.835Z,32.77
2022-12-22T10:39:23.443Z,31.73
2022-12-22T10:41:56.297Z,32.17
2022-12-22T10:44:28.782Z,27.10
2022-12-22T10:47:01.357Z,37.63
2022-12-22T10:52:14.184Z,33.70
2022-12-22T10:54:44.679Z,32.30
2022-12-22T10:57:30.104Z,34.70
2022-12-22T11:00:00.638Z,31.63
2022-12-22T11:02:38.047Z,38.20
2022-12-22T11:05:09.884Z,41.93
2022-12-22T11:07:40.205Z,36.93
2022-12-22T11:10:25.838Z,45.80
2022-12-22T11:13:21.340Z,38.27
2022-12-22T11:16:00.154Z,34.90
2022-12-22T11:18:48.747Z,31.90
2022-12-22T11:21:24.530Z,39.10
2022-12-22T11:24:02.836Z,40.70
2022-12-22T11:26:43.206Z,41.43
2022-12-22T11:29:34.327Z,41.27
2022-12-22T11:32:25.562Z,33.93
2022-12-22T11:35:03.208Z,48.60
2022-12-22T11:37:43.400Z,34.57
2022-12-22T11:40:28.897Z,38.73
2022-12-22T11:43:21.724Z,36.13
2022-12-22T11:46:03.426Z,49.23
2022-12-22T11:49:29.023Z,37.50
2022-12-22T11:52:14.624Z,35.17
2022-12-22T11:55:01.078Z,50.87
2022-12-22T11:57:40.095Z,41.33
2022-12-22T12:00:11.608Z,47.40
2022-12-22T12:03:16.793Z,50.63
2022-12-22T12:06:14.537Z,53.03
2022-12-22T12:09:03.241Z,65.43
2022-12-22T12:11:40.332Z,64.33
2022-12-22T12:14:23.188Z,64.10
2022-12-22T12:16:59.863Z,60.77
2022-12-22T12:20:04.149Z,72.43
2022-12-22T12:22:55.322Z,75.03
2022-12-22T12:25:32.920Z,78.40
2022-12-22T12:28:25.137Z,78.97
2022-12-22T12:30:58.583Z,106.33
2022-12-22T12:33:40.034Z,97.30
2022-12-22T12:36:15.645Z,93.77
2022-12-22T12:39:11.921Z,116.93
2022-12-22T12:41:55.299Z,84.47
2022-12-22T12:44:29.170Z,89.97
2022-12-22T12:47:24.763Z,99.10
2022-12-22T12:50:30.723Z,94.73
2022-12-22T12:53:17.579Z,81.27
2022-12-22T12:56:02.533Z,77.23
2022-12-22T12:58:57.957Z,82.63
2022-12-22T13:02:01.074Z,81.23
2022-12-22T13:05:03.068Z,79.47
2022-12-22T13:08:24.151Z,94.20
2022-12-22T13:12:10.513Z,78.30
2022-12-22T13:15:01.379Z,73.10
2022-12-22T13:17:49.020Z,76.57
2022-12-22T13:20:28.879Z,64.37
2022-12-22T13:23:00.277Z,71.70
2022-12-22T13:25:42.626Z,79.70
2022-12-22T13:28:17.202Z,71.23
2022-12-22T13:30:50.371Z,68.97
2022-12-22T13:33:25.035Z,73.47
2022-12-22T13:35:58.863Z,73.80
2022-12-22T13:38:30.488Z,77.27
2022-12-22T13:41:00.935Z,80.00
2022-12-22T13:43:31.777Z,75.83
2022-12-22T13:46:04.281Z,67.33
2022-12-22T13:48:44.799Z,64.90
2022-12-22T13:51:21.037Z,62.03
2022-12-22T13:54:10.305Z,53.30
2022-12-22T13:56:45.508Z,61.90
2022-12-22T13:59:28.980Z,57.17
2022-12-22T14:02:03.076Z,54.87
2022-12-22T14:04:32.086Z,52.60
2022-12-22T14:07:12.724Z,59.63
2022-12-22T14:09:45.874Z,62.97
2022-12-22T14:12:18.544Z,59.00
2022-12-22T14:14:49.714Z,50.27
2022-12-22T14:17:26.676Z,54.13
2022-12-22T14:19:58.337Z,48.60
2022-12-22T14:22:30.486Z,59.23
2022-12-22T14:25:04.991Z,52.70
2022-12-22T14:27:45.087Z,42.03
2022-12-22T14:30:19.516Z,44.53
2022-12-22T14:32:55.221Z,42.67
2022-12-22T14:35:31.682Z,43.37
2022-12-22T14:38:21.513Z,38.07
2022-12-22T14:40:56.440Z,48.47
2022-12-22T14:43:31.391Z,39.77
2022-12-22T14:46:07.814Z,37.90
2022-12-22T14:48:41.511Z,31.63
2022-12-22T14:51:10.150Z,35.20
2022-12-22T14:53:46.464Z,31.00
2022-12-22T14:56:17.822Z,33.30
2022-12-22T14:58:48.339Z,27.83
2022-12-22T15:01:21.962Z,32.10
2022-12-22T15:04:06.864Z,30.90
2022-12-22T15:06:40.016Z,24.27
2022-12-22T15:12:18.859Z,25.00
2022-12-22T15:14:49.125Z,26.97
2022-12-22T15:17:23.812Z,23.80
2022-12-22T15:19:58.822Z,19.70
2022-12-22T15:22:27.240Z,23.37
2022-12-22T15:24:55.606Z,20.03
2022-12-22T15:27:23.958Z,17.17
2022-12-22T15:29:52.239Z,22.47
2022-12-22T15:32:20.628Z,21.57
2022-12-22T15:34:49.001Z,26.20
2022-12-22T15:37:18.826Z,21.50
2022-12-22T15:39:47.479Z,23.60
2022-12-22T15:42:15.778Z,25.57
2022-12-22T15:44:44.142Z,29.20
2022-12-22T15:47:13.689Z,21.80
2022-12-22T15:49:42.139Z,21.83
2022-12-22T15:52:14.682Z,22.87
2022-12-22T15:54:44.715Z,22.30
2022-12-22T15:57:15.389Z,24.13
2022-12-22T15:59:43.844Z,22.43
2022-12-22T16:02:13.859Z,23.90
2022-12-22T16:04:42.621Z,25.80
2022-12-22T16:07:13.288Z,24.17
2022-12-22T16:09:47.067Z,23.87
2022-12-22T16:12:18.624Z,24.23
2022-12-22T16:14:51.547Z,24.00
2022-12-22T16:17:22.839Z,21.27
2022-12-22T16:19:51.453Z,24.43
2022-12-22T16:22:30.658Z,23.60
2022-12-22T16:25:03.025Z,24.50
2022-12-22T16:27:32.200Z,18.57
2022-12-22T16:30:00.551Z,24.90
2022-12-22T16:32:32.028Z,23.70
2022-12-22T16:35:15.180Z,22.30
2022-12-22T16:37:43.702Z,23.80
2022-12-22T16:40:14.220Z,19.73
2022-12-22T16:45:37.989Z,22.23
2022-12-22T16:48:13.049Z,21.20
2022-12-22T16:50:47.922Z,19.57
2022-12-22T16:53:16.730Z,23.93
2022-12-22T16:55:46.580Z,21.57
2022-12-22T16:58:14.877Z,21.77
2022-12-22T17:00:45.840Z,23.37
2022-12-22T17:03:17.363Z,22.43
2022-12-22T17:05:49.644Z,20.80
2022-12-22T17:08:23.650Z,23.93
2022-12-22T17:10:55.251Z,24.60
2022-12-22T17:13:24.076Z,24.73
2022-12-22T17:15:52.401Z,24.97
2022-12-22T17:18:23.147Z,23.70
2022-12-22T17:20:53.875Z,27.77
2022-12-22T17:23:32.768Z,22.93
2022-12-22T17:26:06.715Z,23.80
2022-12-22T17:28:36.684Z,26.50
2022-12-22T17:31:05.310Z,24.07
2022-12-22T17:33:33.639Z,26.20
2022-12-22T17:36:02.669Z,30.03
2022-12-22T17:38:31.068Z,30.67
2022-12-22T17:41:00.975Z,30.73
2022-12-22T17:43:30.690Z,29.37
2022-12-22T17:45:58.939Z,36.47
2022-12-22T17:48:27.234Z,29.97
2022-12-22T17:50:55.723Z,24.90
2022-12-22T17:53:24.096Z,31.80
2022-12-22T17:56:09.322Z,28.00
2022-12-22T17:58:39.417Z,31.07
2022-12-22T18:01:07.979Z,24.33
2022-12-22T18:03:36.405Z,27.80
2022-12-22T18:06:05.580Z,22.93
2022-12-22T18:08:33.944Z,31.27
2022-12-22T18:11:03.279Z,26.27
2022-12-22T18:13:31.709Z,29.93
2022-12-22T18:16:01.434Z,33.33
2022-12-22T18:18:29.936Z,30.73
2022-12-22T18:21:06.451Z,27.83
2022-12-22T18:23:37.567Z,24.63
2022-12-22T18:26:08.378Z,24.93
2022-12-22T18:28:37.379Z,24.00
2022-12-22T18:31:07.511Z,30.27
2022-12-22T18:33:35.976Z,18.80
2022-12-22T18:36:04.458Z,26.37
2022-12-22T18:38:36.172Z,31.50
2022-12-22T18:41:04.783Z,25.27
2022-12-22T18:43:33.095Z,31.90
2022-12-22T18:46:01.568Z,35.40
2022-12-22T18:48:31.244Z,29.30
2022-12-22T18:50:59.685Z,32.50
2022-12-22T18:53:30.688Z,26.60
2022-12-22T18:55:59.993Z,21.90
2022-12-22T18:58:29.332Z,25.57
2022-12-22T19:00:58.236Z,24.37
2022-12-22T19:03:30.889Z,29.13
2022-12-22T19:05:59.893Z,27.00
2022-12-22T19:08:31.235Z,25.30
2022-12-22T19:11:04.672Z,22.00
2022-12-22T19:13:36.224Z,32.27
2022-12-22T19:16:05.635Z,28.20
2022-12-22T19:18:35.404Z,26.77
2022-12-22T19:21:03.772Z,23.87
2022-12-22T19:23:32.051Z,23.17
2022-12-22T19:26:08.460Z,19.77
2022-12-22T19:28:41.363Z,32.47
2022-12-22T19:31:17.168Z,24.03
2022-12-22T19:33:47.166Z,30.70
2022-12-22T19:36:19.756Z,32.17
2022-12-22T19:38:50.850Z,17.33
2022-12-22T19:41:33.792Z,20.80
2022-12-22T19:44:02.450Z,23.40
2022-12-22T19:46:35.065Z,25.73
2022-12-22T19:49:04.819Z,17.50
2022-12-22T19:51:33.100Z,18.87
2022-12-22T19:54:01.444Z,22.53
2022-12-22T19:56:30.926Z,26.23
2022-12-22T19:59:01.895Z,32.37
2022-12-22T20:01:30.468Z,27.33
2022-12-22T20:03:58.939Z,19.97
2022-12-22T20:06:28.589Z,28.63
2022-12-22T20:09:01.578Z,24.37
2022-12-22T20:11:30.263Z,19.33
2022-12-22T20:13:58.636Z,25.60
2022-12-22T20:16:27.004Z,22.50
2022-12-22T20:18:55.314Z,18.53
2022-12-22T20:21:30.517Z,26.50
2022-12-22T20:24:01.477Z,28.93
2022-12-22T20:26:29.916Z,23.03
2022-12-22T20:28:58.326Z,16.07
2022-12-22T20:31:27.522Z,23.70
2022-12-22T20:33:55.917Z,19.20
2022-12-22T20:36:30.034Z,22.20
2022-12-22T20:39:01.257Z,23.03
2022-12-22T20:41:29.665Z,19.37
2022-12-22T20:43:57.932Z,22.90
2022-12-22T20:46:29.940Z,22.33
2022-12-22T20:49:01.624Z,26.67
2022-12-22T20:51:34.323Z,15.03
2022-12-22T20:54:02.843Z,23.17
2022-12-22T20:56:34.027Z,15.17
2022-12-22T20:59:13.065Z,24.23
2022-12-22T21:01:41.567Z,21.33
2022-12-22T21:04:10.123Z,18.77
2022-12-22T21:06:43.901Z,21.50
2022-12-22T21:09:13.566Z,18.80
2022-12-22T21:11:41.834Z,29.17
2022-12-22T21:14:11.663Z,21.10
2022-12-22T21:16:41.305Z,22.60
2022-12-22T21:19:16.202Z,16.40
2022-12-22T21:21:46.011Z,15.60
2022-12-22T21:24:14.524Z,25.43
2022-12-22T21:26:48.122Z,21.97
2022-12-22T21:29:22.386Z,21.70
2022-12-22T21:31:50.740Z,22.77
2022-12-22T21:34:20.531Z,21.70
2022-12-22T21:36:57.248Z,24.90
2022-12-22T21:39:31.432Z,24.03
2022-12-22T21:42:04.622Z,23.63
2022-12-22T21:44:36.413Z,31.70
2022-12-22T21:47:05.347Z,20.20
2022-12-22T21:49:34.894Z,30.87
2022-12-22T21:52:04.787Z,23.67
2022-12-22T21:54:33.101Z,30.23
2022-12-22T21:57:01.469Z,24.13
2022-12-22T21:59:29.932Z,25.10
2022-12-22T22:01:58.438Z,24.63
2022-12-22T22:04:27.249Z,23.97
2022-12-22T22:06:55.793Z,29.40
2022-12-22T22:09:25.504Z,24.00
2022-12-22T22:12:11.244Z,26.37
2022-12-22T22:14:39.824Z,25.50
2022-12-22T22:17:08.103Z,18.23
2022-12-22T22:19:36.650Z,22.73
2022-12-22T22:22:05.018Z,23.40
2022-12-22T22:24:34.837Z,25.07
2022-12-22T22:27:03.217Z,19.20
2022-12-22T22:29:31.540Z,18.60
2022-12-22T22:31:59.883Z,21.30
2022-12-22T22:34:28.161Z,26.93
2022-12-22T22:36:56.641Z,25.87
2022-12-22T22:39:25.617Z,32.70
2022-12-22T22:41:55.315Z,29.03
2022-12-22T22:44:23.855Z,29.60
2022-12-22T22:46:52.217Z,34.70
2022-12-22T22:49:26.192Z,27.83
2022-12-22T22:51:56.594Z,22.57
2022-12-22T22:54:25.161Z,29.00
2022-12-22T22:56:55.329Z,27.10
2022-12-22T22:59:26.007Z,49.73
2022-12-22T23:01:54.355Z,22.27
2022-12-22T23:04:22.808Z,37.53
2022-12-22T23:06:51.224Z,31.50
2022-12-22T23:09:19.811Z,27.93
2022-12-22T23:11:48.075Z,22.23
2022-12-22T23:14:17.842Z,31.27
2022-12-22T23:16:46.293Z,20.20
2022-12-22T23:19:14.975Z,31.90
2022-12-22T23:21:44.907Z,22.47
2022-12-22T23:24:13.482Z,25.60
2022-12-22T23:26:41.849Z,22.67
2022-12-22T23:29:10.275Z,25.13
2022-12-22T23:31:39.956Z,22.10
2022-12-22T23:34:08.317Z,21.23
2022-12-22T23:36:36.663Z,33.97
2022-12-22T23:39:05.886Z,17.50
2022-12-22T23:41:34.592Z,22.43
2022-12-22T23:44:02.891Z,23.27
2022-12-22T23:46:31.237Z,22.70
2022-12-22T23:49:00.975Z,19.47
2022-12-22T23:51:30.729Z,23.53
2022-12-22T23:54:01.467Z,26.43
2022-12-22T23:56:30.559Z,24.90
2022-12-22T23:58:59.513Z,27.30
